Terminal Aerodrome Forecast
Issued by NWS Cleveland, OH

Home | Current Version | Previous Version | Graphics & Text | Print | Product List | Glossary On
Versions: 1 2 3 4 5 6 7 8 9 10 11 12 13 14 15 16 17 18 19 20
000
FTUS41 KCLE 222344
TAFYNG
TAF
KYNG 222344Z 2300/2324 25004KT P6SM BKN035
     FM230200 25006KT P6SM SCT100
     FM230900 VRB03KT 2SM BR SCT010
     FM231000 VRB03KT 1SM BR BKN003
     FM231300 21004KT 3SM BR BKN010
     FM231400 25005KT 5SM BR BKN014
     FM231500 27006KT P6SM BKN035=

USA.gov is the U.S. government's official web portal to all federal, state and local government web resources and services.